createdAt,value
2023-05-06T00:00:39.481Z,14.80
2023-05-06T00:03:15.740Z,14.74
2023-05-06T00:05:43.505Z,14.75
2023-05-06T00:08:10.420Z,14.80
2023-05-06T00:10:37.897Z,14.81
2023-05-06T00:13:05.183Z,14.78
2023-05-06T00:15:32.487Z,14.78
2023-05-06T00:18:01.071Z,14.78
2023-05-06T00:20:29.511Z,14.79
2023-05-06T00:22:56.860Z,14.82
2023-05-06T00:25:24.320Z,14.81
2023-05-06T00:27:51.262Z,14.53
2023-05-06T00:30:18.519Z,14.80
2023-05-06T00:32:45.672Z,14.80
2023-05-06T00:35:12.987Z,14.73
2023-05-06T00:37:44.967Z,14.73
2023-05-06T00:40:12.899Z,14.70
2023-05-06T00:42:40.133Z,14.52
2023-05-06T00:45:08.510Z,14.62
2023-05-06T00:47:35.965Z,14.57
2023-05-06T00:50:03.511Z,14.53
2023-05-06T00:52:30.681Z,14.55
2023-05-06T00:54:59.403Z,14.52
2023-05-06T00:57:26.634Z,14.40
2023-05-06T00:59:54.467Z,14.27
2023-05-06T01:02:21.577Z,14.39
2023-05-06T01:04:49.363Z,14.47
2023-05-06T01:07:25.136Z,14.47
2023-05-06T01:09:55.922Z,14.49
2023-05-06T01:12:31.113Z,14.48
2023-05-06T01:15:06.521Z,14.16
2023-05-06T01:17:37.925Z,14.30
2023-05-06T01:20:11.047Z,14.12
2023-05-06T01:22:38.998Z,14.05
2023-05-06T01:25:18.206Z,14.00
2023-05-06T01:27:45.188Z,13.93
2023-05-06T01:30:14.239Z,13.89
2023-05-06T01:32:53.725Z,13.91
2023-05-06T01:35:27.558Z,13.79
2023-05-06T01:38:03.936Z,13.82
2023-05-06T01:40:33.824Z,13.75
2023-05-06T01:43:05.103Z,13.70
2023-05-06T01:45:35.650Z,13.66
2023-05-06T01:48:02.985Z,13.64
2023-05-06T01:50:31.244Z,13.65
2023-05-06T01:52:59.409Z,13.68
2023-05-06T01:55:27.147Z,13.63
2023-05-06T01:57:56.732Z,13.51
2023-05-06T02:00:27.008Z,13.43
2023-05-06T02:02:54.282Z,13.16
2023-05-06T02:05:21.699Z,13.33
2023-05-06T02:07:48.650Z,13.31
2023-05-06T02:10:16.156Z,13.30
2023-05-06T02:12:43.429Z,13.25
2023-05-06T02:15:12.293Z,13.08
2023-05-06T02:17:39.365Z,13.17
2023-05-06T02:20:09.930Z,13.14
2023-05-06T02:22:36.888Z,13.14
2023-05-06T02:25:04.680Z,13.08
2023-05-06T02:27:31.773Z,13.02
2023-05-06T02:29:59.328Z,13.06
2023-05-06T02:32:27.792Z,13.04
2023-05-06T02:34:55.176Z,12.97
2023-05-06T02:37:22.177Z,12.94
2023-05-06T02:39:49.737Z,12.92
2023-05-06T02:42:16.700Z,12.90
2023-05-06T02:44:44.107Z,12.86
2023-05-06T02:47:10.966Z,12.86
2023-05-06T02:49:39.584Z,12.82
2023-05-06T02:52:06.527Z,12.84
2023-05-06T02:54:33.937Z,12.85
2023-05-06T02:57:02.340Z,12.81
2023-05-06T02:59:29.646Z,12.81
2023-05-06T03:01:57.910Z,12.79
2023-05-06T03:04:25.554Z,12.73
2023-05-06T03:06:53.899Z,12.65
2023-05-06T03:09:21.470Z,12.64
2023-05-06T03:11:48.418Z,12.75
2023-05-06T03:14:16.246Z,12.72
2023-05-06T03:16:43.230Z,12.72
2023-05-06T03:19:10.671Z,12.61
2023-05-06T03:21:37.711Z,12.68
2023-05-06T03:24:06.722Z,12.70
2023-05-06T03:26:33.685Z,12.72
2023-05-06T03:29:00.896Z,12.56
2023-05-06T03:31:27.842Z,12.67
2023-05-06T03:33:55.278Z,12.69
2023-05-06T03:36:25.161Z,12.61
2023-05-06T03:38:52.408Z,12.70
2023-05-06T03:41:21.362Z,12.60
2023-05-06T03:43:48.548Z,12.55
2023-05-06T03:46:15.626Z,12.62
2023-05-06T03:48:42.927Z,12.53
2023-05-06T03:51:09.949Z,12.55
2023-05-06T03:53:37.501Z,12.39
2023-05-06T03:56:05.075Z,12.60
2023-05-06T03:58:33.669Z,12.64
2023-05-06T04:01:01.159Z,12.67
2023-05-06T04:03:28.591Z,12.74
2023-05-06T04:05:55.680Z,12.75
2023-05-06T04:08:23.146Z,12.70
2023-05-06T04:10:50.070Z,12.77
2023-05-06T04:13:18.059Z,12.77
2023-05-06T04:15:46.694Z,12.83
2023-05-06T04:18:19.026Z,12.89
2023-05-06T04:20:47.524Z,12.94
2023-05-06T04:23:15.381Z,13.28
2023-05-06T04:25:42.755Z,13.42
2023-05-06T04:28:12.196Z,13.64
2023-05-06T04:30:39.110Z,13.99
2023-05-06T04:33:08.939Z,14.20
2023-05-06T04:35:36.786Z,14.46
2023-05-06T04:38:04.205Z,14.95
2023-05-06T04:40:31.131Z,15.32
2023-05-06T04:42:58.375Z,15.78
2023-05-06T04:45:26.218Z,16.42
2023-05-06T04:47:53.592Z,17.13
2023-05-06T04:50:21.859Z,17.37
2023-05-06T04:52:49.367Z,18.10
2023-05-06T04:55:16.241Z,19.18
2023-05-06T04:57:43.666Z,20.03
2023-05-06T05:00:11.141Z,20.68
2023-05-06T05:02:38.671Z,21.32
2023-05-06T05:05:07.139Z,22.15
2023-05-06T05:07:36.116Z,23.67
2023-05-06T05:10:03.170Z,24.88
2023-05-06T05:12:31.399Z,25.70
2023-05-06T05:14:58.363Z,26.71
2023-05-06T05:17:25.763Z,27.23
2023-05-06T05:19:52.922Z,27.43
2023-05-06T05:22:20.205Z,27.02
2023-05-06T05:24:48.454Z,26.82
2023-05-06T05:27:15.555Z,27.31
2023-05-06T05:29:42.585Z,26.07
2023-05-06T05:32:09.767Z,24.85
2023-05-06T05:34:36.885Z,24.33
2023-05-06T05:37:04.192Z,24.36
2023-05-06T05:39:31.264Z,24.17
2023-05-06T05:42:00.061Z,23.45
2023-05-06T05:44:27.052Z,23.15
2023-05-06T05:46:54.342Z,22.85
2023-05-06T05:49:21.491Z,22.18
2023-05-06T05:51:48.649Z,21.97
2023-05-06T05:54:16.512Z,21.78
2023-05-06T05:56:44.014Z,21.71
2023-05-06T05:59:12.403Z,21.74
2023-05-06T06:01:39.493Z,21.53
2023-05-06T06:04:07.949Z,21.43
2023-05-06T06:06:35.457Z,21.33
2023-05-06T06:09:02.595Z,21.40
2023-05-06T06:11:30.198Z,21.71
2023-05-06T06:13:57.272Z,21.70
2023-05-06T06:16:25.929Z,21.60
2023-05-06T06:18:53.647Z,21.63
2023-05-06T06:21:21.184Z,21.60
2023-05-06T06:23:48.115Z,21.98
2023-05-06T06:26:15.444Z,22.21
2023-05-06T06:28:44.468Z,22.21
2023-05-06T06:31:11.788Z,22.47
2023-05-06T06:33:40.630Z,22.20
2023-05-06T06:36:08.851Z,22.58
2023-05-06T06:38:36.322Z,22.61
2023-05-06T06:41:04.863Z,22.85
2023-05-06T06:43:31.826Z,23.28
2023-05-06T06:45:59.727Z,23.51
2023-05-06T06:48:26.665Z,23.31
2023-05-06T06:50:55.544Z,23.45
2023-05-06T06:53:22.974Z,23.29
2023-05-06T06:55:50.202Z,23.15
2023-05-06T06:58:17.443Z,23.22
2023-05-06T07:00:44.805Z,23.16
2023-05-06T07:03:15.511Z,23.64
2023-05-06T07:05:42.878Z,23.77
2023-05-06T07:08:11.307Z,23.72
2023-05-06T07:10:38.869Z,23.68
2023-05-06T07:13:06.049Z,23.87
2023-05-06T07:15:33.368Z,23.94
2023-05-06T07:18:00.339Z,24.16
2023-05-06T07:20:27.610Z,23.93
2023-05-06T07:22:54.596Z,24.21
2023-05-06T07:25:23.598Z,24.18
2023-05-06T07:27:50.691Z,23.82
2023-05-06T07:30:21.059Z,24.06
2023-05-06T07:32:50.547Z,24.03
2023-05-06T07:35:18.210Z,23.94
2023-05-06T07:37:45.915Z,23.85
2023-05-06T07:40:13.459Z,24.16
2023-05-06T07:42:43.175Z,24.13
2023-05-06T07:45:12.559Z,24.18
2023-05-06T07:47:39.848Z,23.89
2023-05-06T07:50:08.505Z,23.83
2023-05-06T07:52:36.165Z,24.12
2023-05-06T07:55:07.175Z,24.23
2023-05-06T07:57:34.032Z,24.29
2023-05-06T08:00:03.411Z,24.22
2023-05-06T08:26:01.973Z,24.01
2023-05-06T08:28:29.368Z,23.97
2023-05-06T08:30:56.355Z,23.75
2023-05-06T08:33:23.669Z,24.08
2023-05-06T08:35:50.963Z,24.14
2023-05-06T08:38:18.429Z,24.22
2023-05-06T08:40:45.501Z,24.28
2023-05-06T08:43:17.444Z,24.41
2023-05-06T08:45:47.636Z,23.92
2023-05-06T08:48:16.988Z,24.29
2023-05-06T08:50:46.498Z,24.48
2023-05-06T08:53:17.119Z,24.59
2023-05-06T08:55:45.482Z,24.83
2023-05-06T08:58:16.902Z,24.80
2023-05-06T09:00:46.202Z,24.88
2023-05-06T09:03:15.728Z,24.89
2023-05-06T09:05:43.289Z,24.87
2023-05-06T09:08:11.770Z,24.85
2023-05-06T09:10:43.988Z,25.04
2023-05-06T09:13:12.964Z,25.20
2023-05-06T09:15:43.840Z,25.43
2023-05-06T09:18:11.784Z,25.50
2023-05-06T09:20:42.100Z,25.49
2023-05-06T09:23:12.116Z,25.07
2023-05-06T09:25:39.627Z,25.06
2023-05-06T09:28:07.953Z,25.22
2023-05-06T09:30:41.731Z,24.82
2023-05-06T09:33:11.596Z,25.43
2023-05-06T09:35:44.995Z,25.46
2023-05-06T09:38:12.158Z,25.32
2023-05-06T09:40:39.471Z,25.39
2023-05-06T09:43:06.727Z,25.35
2023-05-06T09:45:34.091Z,25.69
2023-05-06T09:48:01.248Z,25.70
2023-05-06T09:50:30.184Z,25.72
2023-05-06T09:52:57.485Z,25.62
2023-05-06T09:55:27.220Z,25.75
2023-05-06T09:57:56.643Z,25.93
2023-05-06T10:00:28.204Z,26.02
2023-05-06T10:02:56.047Z,26.04
2023-05-06T10:05:26.524Z,26.04
2023-05-06T10:07:57.252Z,25.81
2023-05-06T10:10:25.564Z,25.99
2023-05-06T10:12:52.917Z,25.92
2023-05-06T10:15:23.012Z,25.99
2023-05-06T10:17:52.802Z,26.37
2023-05-06T10:20:21.465Z,26.58
2023-05-06T10:23:06.629Z,26.75
2023-05-06T10:25:37.274Z,26.52
2023-05-06T10:28:08.497Z,26.02
2023-05-06T10:30:46.732Z,25.72
2023-05-06T10:33:15.025Z,25.53
2023-05-06T10:35:47.210Z,25.92
2023-05-06T10:38:23.592Z,26.23
2023-05-06T10:40:52.481Z,26.52
2023-05-06T10:43:26.320Z,26.69
2023-05-06T10:46:05.824Z,26.49
2023-05-06T10:48:33.067Z,26.21
2023-05-06T10:51:23.031Z,26.33
2023-05-06T10:53:59.213Z,26.51
2023-05-06T10:56:26.824Z,26.68
2023-05-06T10:58:55.164Z,26.77
2023-05-06T11:01:23.212Z,26.91
2023-05-06T11:03:51.812Z,26.75
2023-05-06T11:06:42.082Z,26.95
2023-05-06T11:09:17.956Z,26.97
2023-05-06T11:11:57.848Z,27.15
2023-05-06T11:14:27.196Z,27.16
2023-05-06T11:16:58.952Z,26.82
2023-05-06T11:19:27.287Z,27.08
2023-05-06T11:21:58.993Z,27.27
2023-05-06T11:24:29.075Z,27.27
2023-05-06T11:26:58.908Z,26.90
2023-05-06T11:29:27.152Z,26.96
2023-05-06T11:31:54.371Z,26.92
2023-05-06T11:34:23.684Z,27.08
2023-05-06T11:36:58.626Z,27.08
2023-05-06T11:39:39.201Z,26.92
2023-05-06T11:42:09.004Z,26.77
2023-05-06T11:44:37.900Z,26.30
2023-05-06T11:47:06.165Z,26.64
2023-05-06T11:49:37.650Z,26.55
2023-05-06T11:52:05.309Z,26.54
2023-05-06T11:54:36.590Z,26.17
2023-05-06T11:57:04.240Z,26.29
2023-05-06T11:59:33.253Z,25.70
2023-05-06T12:02:02.573Z,26.52
2023-05-06T12:04:37.741Z,26.55
2023-05-06T12:07:06.127Z,26.48
2023-05-06T12:09:36.135Z,26.32
2023-05-06T12:12:04.646Z,26.29
2023-05-06T12:14:32.425Z,26.63
2023-05-06T12:16:59.924Z,26.68
2023-05-06T12:19:28.400Z,26.47
2023-05-06T12:21:55.825Z,26.32
2023-05-06T12:24:29.950Z,26.46
2023-05-06T12:26:58.812Z,26.70
2023-05-06T12:29:25.893Z,26.19
2023-05-06T12:32:08.205Z,26.56
2023-05-06T12:34:39.451Z,26.67
2023-05-06T12:37:07.247Z,26.41
2023-05-06T12:39:34.871Z,26.48
2023-05-06T12:42:03.866Z,26.46
2023-05-06T12:44:37.836Z,26.34
2023-05-06T12:47:09.924Z,26.33
2023-05-06T12:49:47.431Z,26.25
2023-05-06T12:52:14.962Z,26.62
2023-05-06T12:54:42.321Z,26.63
2023-05-06T12:57:11.062Z,26.49
2023-05-06T12:59:38.477Z,26.49
2023-05-06T13:02:08.608Z,26.48
2023-05-06T13:04:35.869Z,26.64
2023-05-06T13:07:03.378Z,26.66
2023-05-06T13:09:30.718Z,26.50
2023-05-06T13:11:58.641Z,25.86
2023-05-06T13:14:27.157Z,25.61
2023-05-06T13:16:54.406Z,25.59
2023-05-06T13:19:32.326Z,25.35
2023-05-06T13:22:00.805Z,25.44
2023-05-06T13:24:28.650Z,25.46
2023-05-06T13:27:00.966Z,25.42
2023-05-06T13:29:32.514Z,25.19
2023-05-06T13:32:00.832Z,24.96
2023-05-06T13:34:28.018Z,25.26
2023-05-06T13:36:56.647Z,25.47
2023-05-06T13:39:23.922Z,25.24
2023-05-06T13:41:52.082Z,25.10
2023-05-06T13:44:19.714Z,24.67
2023-05-06T13:46:48.751Z,24.80
2023-05-06T13:49:15.839Z,24.46
2023-05-06T13:51:43.068Z,24.30
2023-05-06T13:54:10.286Z,24.59
2023-05-06T13:56:37.754Z,24.54
2023-05-06T13:59:04.781Z,24.57
2023-05-06T14:01:32.129Z,24.41
2023-05-06T14:04:00.853Z,24.84
2023-05-06T14:06:30.135Z,25.05
2023-05-06T14:08:57.333Z,25.09
2023-05-06T14:11:24.653Z,25.19
2023-05-06T14:13:55.857Z,25.28
2023-05-06T14:16:23.759Z,25.40
2023-05-06T14:18:50.811Z,25.41
2023-05-06T14:21:19.028Z,25.44
2023-05-06T14:23:46.273Z,25.53
2023-05-06T14:26:16.127Z,25.58
2023-05-06T14:28:43.543Z,25.42
2023-05-06T14:31:10.759Z,25.18
2023-05-06T14:33:39.190Z,24.92
2023-05-06T14:36:06.994Z,24.39
2023-05-06T14:38:35.658Z,24.80
2023-05-06T14:41:02.633Z,24.81
2023-05-06T14:43:29.752Z,24.83
2023-05-06T14:45:56.845Z,24.58
2023-05-06T14:48:25.378Z,25.09
2023-05-06T14:50:52.415Z,24.82
2023-05-06T14:53:19.658Z,25.03
2023-05-06T14:55:50.373Z,24.97
2023-05-06T14:58:17.925Z,24.98
2023-05-06T15:00:47.887Z,24.75
2023-05-06T15:03:15.415Z,25.01
2023-05-06T15:05:42.375Z,24.98
2023-05-06T15:08:10.109Z,24.96
2023-05-06T15:10:37.054Z,24.89
2023-05-06T15:13:05.889Z,25.00
2023-05-06T15:15:32.930Z,25.01
2023-05-06T15:18:00.528Z,24.82
2023-05-06T15:20:30.936Z,25.02
2023-05-06T15:22:58.323Z,25.14
2023-05-06T15:25:35.150Z,24.74
2023-05-06T15:28:06.633Z,25.06
2023-05-06T15:30:33.673Z,25.15
2023-05-06T15:33:01.616Z,25.22
2023-05-06T15:35:28.920Z,24.78
2023-05-06T15:37:59.540Z,24.95
2023-05-06T15:40:29.915Z,25.29
2023-05-06T15:42:58.306Z,24.90
2023-05-06T15:45:27.281Z,25.02
2023-05-06T15:47:56.706Z,25.06
2023-05-06T15:50:32.803Z,25.08
2023-05-06T15:53:02.089Z,25.06
2023-05-06T15:55:35.060Z,25.06
2023-05-06T15:58:08.801Z,24.82
2023-05-06T16:00:37.786Z,24.82
2023-05-06T16:03:05.529Z,24.71
2023-05-06T16:05:33.870Z,24.66
2023-05-06T16:08:03.328Z,24.55
2023-05-06T16:10:30.467Z,24.47
2023-05-06T16:12:57.784Z,24.33
2023-05-06T16:15:26.568Z,23.83
2023-05-06T16:17:55.223Z,23.92
2023-05-06T16:20:22.305Z,23.92
2023-05-06T16:22:50.374Z,23.90
2023-05-06T16:25:17.591Z,23.84
2023-05-06T16:27:44.913Z,23.74
2023-05-06T16:30:12.681Z,23.73
2023-05-06T16:32:40.145Z,23.70
2023-05-06T16:35:09.405Z,23.56
2023-05-06T16:37:36.994Z,23.63
2023-05-06T16:40:04.852Z,23.70
2023-05-06T16:42:34.550Z,23.43
2023-05-06T16:45:07.902Z,23.76
2023-05-06T16:47:35.465Z,23.72
2023-05-06T16:50:03.746Z,23.51
2023-05-06T16:52:32.339Z,23.79
2023-05-06T16:54:59.391Z,23.75
2023-05-06T16:57:26.622Z,23.70
2023-05-06T16:59:53.691Z,23.67
2023-05-06T17:02:21.494Z,23.72
2023-05-06T17:04:48.760Z,23.69
2023-05-06T17:07:16.334Z,23.55
2023-05-06T17:09:44.779Z,23.49
2023-05-06T17:12:12.098Z,23.50
2023-05-06T17:14:41.411Z,23.30
2023-05-06T17:17:08.616Z,23.37
2023-05-06T17:19:35.766Z,23.01
2023-05-06T17:22:03.474Z,23.23
2023-05-06T17:24:30.863Z,23.19
2023-05-06T17:26:59.462Z,23.11
2023-05-06T17:29:26.463Z,23.00
2023-05-06T17:31:53.793Z,22.88
2023-05-06T17:36:49.391Z,22.92
2023-05-06T17:39:16.922Z,22.83
2023-05-06T17:41:44.084Z,22.75
2023-05-06T17:44:12.668Z,22.62
2023-05-06T17:46:39.985Z,22.51
2023-05-06T17:49:06.998Z,22.38
2023-05-06T17:51:34.128Z,22.37
2023-05-06T17:54:01.127Z,22.29
2023-05-06T17:56:28.500Z,22.19
2023-05-06T17:58:56.535Z,22.01
2023-05-06T18:01:25.451Z,22.08
2023-05-06T18:03:52.667Z,22.04
2023-05-06T18:06:19.990Z,21.97
2023-05-06T18:08:47.343Z,21.89
2023-05-06T18:11:16.197Z,21.67
2023-05-06T18:13:43.239Z,21.43
2023-05-06T18:16:10.751Z,21.69
2023-05-06T18:18:39.177Z,21.69
2023-05-06T18:21:06.608Z,21.60
2023-05-06T18:23:33.601Z,21.48
2023-05-06T18:26:04.073Z,21.53
2023-05-06T18:28:31.058Z,21.33
2023-05-06T18:30:58.314Z,21.52
2023-05-06T18:33:25.460Z,21.37
2023-05-06T18:35:54.237Z,21.17
2023-05-06T18:38:21.600Z,21.06
2023-05-06T18:40:48.945Z,20.95
2023-05-06T18:43:15.899Z,20.87
2023-05-06T18:45:43.421Z,20.97
2023-05-06T18:48:10.925Z,20.90
2023-05-06T18:50:38.278Z,20.74
2023-05-06T18:53:06.644Z,20.75
2023-05-06T18:55:33.869Z,20.69
2023-05-06T18:58:05.522Z,20.56
2023-05-06T19:00:32.809Z,20.58
2023-05-06T19:02:59.803Z,20.45
2023-05-06T19:05:27.497Z,20.51
2023-05-06T19:07:54.456Z,20.47
2023-05-06T19:10:23.332Z,20.43
2023-05-06T19:12:50.846Z,20.39
2023-05-06T19:15:19.167Z,20.38
2023-05-06T19:17:46.362Z,20.32
2023-05-06T19:20:14.419Z,20.29
2023-05-06T19:22:41.970Z,20.24
2023-05-06T19:25:10.273Z,20.23
2023-05-06T19:27:38.982Z,20.17
2023-05-06T19:30:07.558Z,20.13
2023-05-06T19:32:34.517Z,20.09
2023-05-06T19:35:08.142Z,20.03
2023-05-06T19:37:35.704Z,19.79
2023-05-06T19:40:04.894Z,19.86
2023-05-06T19:42:32.923Z,19.70
2023-05-06T19:45:06.435Z,19.72
2023-05-06T19:47:33.401Z,19.73
2023-05-06T19:50:00.791Z,19.72
2023-05-06T19:52:30.560Z,19.68
2023-05-06T19:54:59.213Z,19.62
2023-05-06T19:57:27.594Z,19.49
2023-05-06T19:59:54.950Z,19.56
2023-05-06T20:02:23.704Z,19.55
2023-05-06T20:04:51.046Z,19.41
2023-05-06T20:07:17.990Z,19.48
2023-05-06T20:09:45.548Z,19.46
2023-05-06T20:12:12.530Z,19.39
2023-05-06T20:14:39.798Z,19.32
2023-05-06T20:17:06.820Z,19.33
2023-05-06T20:19:35.496Z,19.22
2023-05-06T20:22:02.543Z,19.16
2023-05-06T20:24:29.953Z,19.23
2023-05-06T20:26:58.960Z,18.94
2023-05-06T20:29:26.454Z,19.11
2023-05-06T20:31:53.532Z,19.08
2023-05-06T20:34:20.815Z,19.01
2023-05-06T20:36:49.938Z,18.91
2023-05-06T20:39:17.331Z,18.90
2023-05-06T20:41:44.519Z,18.81
2023-05-06T20:44:11.776Z,18.80
2023-05-06T20:46:38.952Z,18.73
2023-05-06T20:49:06.471Z,18.62
2023-05-06T20:51:33.808Z,18.29
2023-05-06T20:54:02.478Z,18.54
2023-05-06T20:56:29.560Z,18.46
2023-05-06T20:58:56.818Z,18.48
2023-05-06T21:01:25.330Z,18.48
2023-05-06T21:03:52.838Z,18.42
2023-05-06T21:06:20.135Z,18.35
2023-05-06T21:08:47.625Z,18.26
2023-05-06T21:11:15.952Z,18.16
2023-05-06T21:13:43.353Z,18.04
2023-05-06T21:16:10.594Z,17.92
2023-05-06T21:18:38.088Z,18.10
2023-05-06T21:21:05.091Z,18.11
2023-05-06T21:23:32.904Z,18.00
2023-05-06T21:25:59.952Z,18.18
2023-05-06T21:28:28.555Z,18.17
2023-05-06T21:30:55.805Z,18.17
2023-05-06T21:33:23.155Z,18.02
2023-05-06T21:35:50.579Z,18.17
2023-05-06T21:38:17.984Z,18.13
2023-05-06T21:40:44.842Z,18.13
2023-05-06T21:43:12.800Z,18.17
2023-05-06T21:45:41.133Z,17.92
2023-05-06T21:48:08.425Z,18.00
2023-05-06T21:50:36.420Z,17.94
2023-05-06T21:53:03.716Z,17.93
2023-05-06T21:55:31.473Z,17.84
2023-05-06T21:57:58.710Z,17.87
2023-05-06T22:00:25.963Z,17.84
2023-05-06T22:02:54.784Z,17.95
2023-05-06T22:05:22.087Z,17.92
2023-05-06T22:07:49.864Z,17.83
2023-05-06T22:10:16.906Z,17.95
2023-05-06T22:12:44.231Z,17.96
2023-05-06T22:15:13.832Z,17.91
2023-05-06T22:17:42.409Z,17.86
2023-05-06T22:20:11.516Z,17.82
2023-05-06T22:22:39.262Z,17.59
2023-05-06T22:25:07.641Z,17.77
2023-05-06T22:27:35.173Z,17.73
2023-05-06T22:30:02.580Z,17.49
2023-05-06T22:32:29.843Z,17.43
2023-05-06T22:34:57.304Z,17.53
2023-05-06T22:37:26.105Z,17.47
2023-05-06T22:39:55.645Z,17.38
2023-05-06T22:42:23.799Z,17.31
2023-05-06T22:44:50.712Z,17.25
2023-05-06T22:47:19.732Z,17.24
2023-05-06T22:49:47.043Z,17.23
2023-05-06T22:52:14.556Z,17.17
2023-05-06T22:54:43.121Z,17.01
2023-05-06T22:57:10.415Z,17.11
2023-05-06T22:59:37.408Z,17.04
2023-05-06T23:02:04.672Z,16.93
2023-05-06T23:04:31.798Z,16.85
2023-05-06T23:06:59.358Z,16.76
2023-05-06T23:09:26.365Z,16.69
2023-05-06T23:11:54.846Z,16.50
2023-05-06T23:14:21.884Z,16.69
2023-05-06T23:16:50.254Z,16.70
2023-05-06T23:19:17.214Z,16.56
2023-05-06T23:21:44.472Z,16.45
2023-05-06T23:24:12.179Z,16.20
2023-05-06T23:26:39.693Z,16.44
2023-05-06T23:29:08.032Z,16.31
2023-05-06T23:31:35.321Z,16.43
2023-05-06T23:34:02.851Z,16.45
2023-05-06T23:36:30.948Z,16.44
2023-05-06T23:38:58.028Z,16.39
2023-05-06T23:41:25.208Z,16.37
2023-05-06T23:43:52.186Z,16.38
2023-05-06T23:46:20.949Z,16.42
2023-05-06T23:48:47.994Z,16.31
2023-05-06T23:51:15.384Z,16.44
2023-05-06T23:53:42.360Z,16.45
2023-05-06T23:56:09.692Z,16.48
2023-05-06T23:58:36.846Z,16.48
